createdAt,value
2022-08-19T00:00:30.068Z,32.90
2022-08-19T00:01:30.606Z,32.40
2022-08-19T00:02:30.038Z,32.50
2022-08-19T00:03:30.043Z,32.90
2022-08-19T00:04:30.174Z,34.20
2022-08-19T00:05:30.024Z,34.60
2022-08-19T00:06:30.012Z,31.80
2022-08-19T00:07:30.005Z,33.30
2022-08-19T00:08:29.996Z,32.40
2022-08-19T00:09:29.976Z,33.20
2022-08-19T00:10:29.994Z,33.80
2022-08-19T00:11:29.979Z,30.20
2022-08-19T00:12:29.974Z,34.00
2022-08-19T00:13:29.950Z,32.40
2022-08-19T00:14:29.948Z,30.80
2022-08-19T00:15:29.965Z,31.50
2022-08-19T00:16:29.934Z,28.50
2022-08-19T00:17:29.942Z,30.00
2022-08-19T00:18:29.918Z,32.40
2022-08-19T00:19:29.919Z,32.90
2022-08-19T00:20:29.902Z,32.70
2022-08-19T00:21:29.923Z,31.10
2022-08-19T00:22:29.887Z,30.20
2022-08-19T00:23:29.893Z,29.80
2022-08-19T00:24:29.886Z,31.70
2022-08-19T00:25:30.734Z,29.60
2022-08-19T00:26:29.868Z,30.20
2022-08-19T00:27:29.878Z,34.70
2022-08-19T00:28:29.849Z,27.60
2022-08-19T00:29:29.839Z,28.90
2022-08-19T00:30:29.836Z,29.00
2022-08-19T00:31:29.845Z,29.10
2022-08-19T00:32:29.831Z,32.80
2022-08-19T00:33:29.823Z,33.40
2022-08-19T00:34:29.821Z,34.20
2022-08-19T00:35:29.809Z,34.10
2022-08-19T00:36:29.783Z,35.70
2022-08-19T00:37:29.784Z,38.10
2022-08-19T00:38:37.398Z,37.90
2022-08-19T00:39:30.814Z,37.00
2022-08-19T00:40:29.754Z,38.80
2022-08-19T00:41:29.756Z,38.00
2022-08-19T00:42:29.760Z,38.90
2022-08-19T00:43:29.740Z,39.30
2022-08-19T00:44:29.731Z,38.50
2022-08-19T00:45:29.722Z,38.60
2022-08-19T00:46:29.717Z,40.70
2022-08-19T00:47:29.710Z,39.70
2022-08-19T00:48:29.719Z,36.90
2022-08-19T00:49:29.712Z,35.20
2022-08-19T00:50:29.694Z,36.90
2022-08-19T00:51:29.673Z,33.80
2022-08-19T00:52:29.686Z,36.20
2022-08-19T00:53:29.661Z,31.60
2022-08-19T00:54:29.903Z,29.20
2022-08-19T00:55:29.642Z,30.20
2022-08-19T00:56:29.636Z,28.90
2022-08-19T00:57:29.627Z,27.00
2022-08-19T00:58:29.649Z,24.30
2022-08-19T01:00:00.516Z,22.20
2022-08-19T01:00:30.599Z,24.00
2022-08-19T01:01:29.652Z,24.90
2022-08-19T01:02:29.588Z,20.80
2022-08-19T01:03:29.578Z,23.60
2022-08-19T01:04:30.591Z,24.10
2022-08-19T01:05:29.565Z,21.10
2022-08-19T01:06:29.552Z,22.80
2022-08-19T01:07:37.607Z,22.10
2022-08-19T01:08:30.570Z,27.20
2022-08-19T01:09:29.541Z,30.10
2022-08-19T01:10:33.537Z,33.10
2022-08-19T01:11:30.527Z,30.80
2022-08-19T01:12:29.512Z,32.10
2022-08-19T01:13:29.504Z,34.30
2022-08-19T01:14:30.532Z,32.90
2022-08-19T01:15:29.496Z,33.70
2022-08-19T01:16:29.505Z,33.60
2022-08-19T01:17:29.482Z,36.50
2022-08-19T01:18:29.485Z,33.90
2022-08-19T01:19:29.466Z,35.40
2022-08-19T01:20:29.454Z,33.10
2022-08-19T01:21:29.466Z,34.00
2022-08-19T01:22:33.524Z,36.60
2022-08-19T01:23:29.436Z,33.70
2022-08-19T01:24:29.433Z,33.50
2022-08-19T01:25:29.421Z,32.20
2022-08-19T01:26:29.417Z,32.60
2022-08-19T01:27:29.504Z,33.80
2022-08-19T01:28:39.640Z,29.90
2022-08-19T01:29:29.403Z,29.40
2022-08-19T01:30:29.392Z,32.10
2022-08-19T01:31:29.394Z,29.50
2022-08-19T01:32:33.237Z,34.30
2022-08-19T01:33:29.371Z,32.70
2022-08-19T01:34:29.377Z,33.90
2022-08-19T01:35:29.351Z,35.20
2022-08-19T01:36:29.348Z,34.60
2022-08-19T01:37:29.351Z,33.60
2022-08-19T01:38:29.336Z,33.00
2022-08-19T01:39:29.421Z,28.90
2022-08-19T01:40:29.327Z,33.70
2022-08-19T01:41:29.302Z,30.00
2022-08-19T01:42:30.587Z,30.90
2022-08-19T01:43:29.300Z,33.90
2022-08-19T01:44:29.291Z,35.20
2022-08-19T01:45:29.304Z,30.10
2022-08-19T01:46:29.273Z,32.10
2022-08-19T01:47:29.266Z,30.70
2022-08-19T01:48:29.258Z,30.30
2022-08-19T01:49:29.264Z,31.30
2022-08-19T01:50:29.264Z,30.60
2022-08-19T01:51:29.237Z,31.00
2022-08-19T01:52:30.233Z,29.40
2022-08-19T01:53:30.614Z,31.60
2022-08-19T01:54:29.215Z,34.60
2022-08-19T01:55:29.215Z,35.60
2022-08-19T01:56:29.217Z,32.80
2022-08-19T01:57:29.189Z,33.50
2022-08-19T01:58:29.197Z,32.90
2022-08-19T01:59:29.177Z,34.00
2022-08-19T02:00:29.195Z,33.50
2022-08-19T02:01:29.180Z,34.50
2022-08-19T02:02:29.158Z,35.10
2022-08-19T02:03:29.143Z,35.40
2022-08-19T02:04:29.142Z,34.60
2022-08-19T02:05:29.135Z,33.90
2022-08-19T02:06:29.142Z,35.10
2022-08-19T02:07:29.119Z,35.00
2022-08-19T02:08:29.128Z,31.20
2022-08-19T02:09:29.145Z,31.80
2022-08-19T02:10:29.095Z,32.70
2022-08-19T02:11:29.093Z,29.00
2022-08-19T02:12:29.074Z,28.20
2022-08-19T02:13:29.071Z,27.30
2022-08-19T02:14:29.058Z,28.10
2022-08-19T02:15:29.072Z,26.90
2022-08-19T02:16:29.045Z,25.40
2022-08-19T02:17:29.047Z,26.10
2022-08-19T02:18:29.045Z,25.00
2022-08-19T02:19:29.026Z,26.00
2022-08-19T02:20:29.011Z,24.20
2022-08-19T02:21:29.007Z,26.60
2022-08-19T02:22:28.998Z,23.00
2022-08-19T02:23:29.011Z,24.60
2022-08-19T02:24:28.982Z,28.30
2022-08-19T02:25:28.992Z,24.60
2022-08-19T02:26:28.986Z,28.80
2022-08-19T02:27:28.963Z,33.50
2022-08-19T02:28:28.958Z,36.00
2022-08-19T02:29:28.956Z,32.00
2022-08-19T02:30:28.965Z,33.20
2022-08-19T02:31:28.931Z,32.90
2022-08-19T02:32:28.925Z,33.40
2022-08-19T02:33:28.926Z,32.40
2022-08-19T02:34:28.910Z,34.60
2022-08-19T02:35:28.914Z,32.30
2022-08-19T02:36:28.915Z,34.70
2022-08-19T02:37:28.897Z,34.40
2022-08-19T02:38:28.891Z,31.30
2022-08-19T02:39:28.875Z,29.90
2022-08-19T02:40:28.863Z,28.80
2022-08-19T02:41:28.886Z,26.90
2022-08-19T02:42:28.858Z,25.40
2022-08-19T02:43:28.843Z,26.70
2022-08-19T02:44:31.559Z,27.40
2022-08-19T02:45:28.832Z,31.80
2022-08-19T02:46:28.821Z,29.60
2022-08-19T02:47:28.838Z,29.90
2022-08-19T02:48:28.814Z,29.90
2022-08-19T02:49:28.826Z,30.30
2022-08-19T02:50:28.797Z,30.30
2022-08-19T02:51:28.801Z,32.90
2022-08-19T02:52:28.785Z,34.20
2022-08-19T02:53:28.773Z,36.90
2022-08-19T02:54:28.785Z,33.90
2022-08-19T02:55:28.756Z,34.10
2022-08-19T02:56:28.772Z,35.60
2022-08-19T02:57:28.744Z,31.00
2022-08-19T02:58:28.760Z,34.30
2022-08-19T02:59:28.724Z,31.30
2022-08-19T03:00:28.713Z,34.60
2022-08-19T03:01:28.754Z,34.80
2022-08-19T03:02:28.727Z,31.40
2022-08-19T03:03:28.698Z,32.80
2022-08-19T03:04:28.695Z,28.60
2022-08-19T03:05:46.907Z,25.90
2022-08-19T03:06:29.671Z,24.00
2022-08-19T03:07:28.675Z,23.10
2022-08-19T03:08:28.667Z,20.00
2022-08-19T03:09:28.647Z,18.70
2022-08-19T03:10:28.631Z,18.20
2022-08-19T03:11:28.638Z,20.10
2022-08-19T03:12:28.628Z,18.90
2022-08-19T03:13:28.633Z,18.10
2022-08-19T03:14:28.634Z,25.10
2022-08-19T03:15:28.596Z,23.40
2022-08-19T03:16:28.596Z,20.00
2022-08-19T03:17:28.606Z,21.10
2022-08-19T03:18:28.571Z,23.80
2022-08-19T03:19:28.572Z,22.20
2022-08-19T03:20:28.560Z,22.40
2022-08-19T03:21:28.553Z,22.70
2022-08-19T03:22:28.545Z,25.10
2022-08-19T03:23:28.561Z,23.50
2022-08-19T03:24:28.539Z,23.40
2022-08-19T03:25:28.526Z,23.60
2022-08-19T03:26:28.514Z,23.60
2022-08-19T03:27:34.444Z,22.30
2022-08-19T03:28:29.527Z,23.90
2022-08-19T03:29:28.505Z,23.00
2022-08-19T03:30:28.488Z,20.40
2022-08-19T03:31:44.795Z,21.10
2022-08-19T03:32:33.044Z,21.80
2022-08-19T03:33:28.718Z,23.20
2022-08-19T03:34:28.473Z,23.90
2022-08-19T03:35:28.456Z,22.80
2022-08-19T03:36:28.555Z,23.50
2022-08-19T03:37:28.440Z,24.00
2022-08-19T03:38:28.431Z,21.80
2022-08-19T03:39:28.440Z,23.60
2022-08-19T03:40:28.408Z,25.80
2022-08-19T03:41:43.312Z,24.60
2022-08-19T03:42:38.690Z,21.00
2022-08-19T03:43:29.392Z,21.70
2022-08-19T03:44:28.382Z,22.30
2022-08-19T03:45:28.379Z,22.30
2022-08-19T03:46:28.373Z,20.90
2022-08-19T03:47:28.360Z,19.20
2022-08-19T03:48:28.373Z,20.10
2022-08-19T03:49:29.098Z,20.60
2022-08-19T03:50:28.338Z,26.30
2022-08-19T03:51:30.880Z,22.20
2022-08-19T03:52:28.347Z,19.40
2022-08-19T03:53:28.309Z,21.00
2022-08-19T03:54:28.318Z,23.70
2022-08-19T03:55:28.300Z,18.60
2022-08-19T03:56:28.290Z,19.50
2022-08-19T03:57:32.126Z,20.80
2022-08-19T03:58:28.295Z,22.80
2022-08-19T03:59:28.271Z,21.70
2022-08-19T04:00:28.279Z,18.80
2022-08-19T04:01:30.398Z,21.10
2022-08-19T04:02:29.239Z,21.40
2022-08-19T04:03:28.266Z,21.40
2022-08-19T04:04:29.295Z,19.50
2022-08-19T04:05:28.226Z,21.10
2022-08-19T04:06:28.213Z,20.70
2022-08-19T04:07:28.206Z,23.00
2022-08-19T04:08:28.197Z,20.10
2022-08-19T04:09:28.215Z,20.80
2022-08-19T04:10:28.187Z,20.40
2022-08-19T04:11:43.434Z,20.60
2022-08-19T04:12:29.185Z,20.70
2022-08-19T04:13:28.165Z,20.30
2022-08-19T04:14:28.169Z,23.30
2022-08-19T04:15:28.146Z,19.00
2022-08-19T04:16:35.073Z,22.00
2022-08-19T04:17:28.161Z,18.80
2022-08-19T04:18:28.134Z,19.20
2022-08-19T04:19:28.115Z,19.90
2022-08-19T04:20:28.114Z,18.30
2022-08-19T04:21:28.108Z,19.40
2022-08-19T04:22:28.101Z,19.50
2022-08-19T04:23:28.111Z,20.80
2022-08-19T04:24:28.079Z,19.50
2022-08-19T04:25:28.092Z,18.90
2022-08-19T04:26:28.070Z,21.60
2022-08-19T04:27:28.060Z,21.80
2022-08-19T04:28:28.067Z,21.20
2022-08-19T04:29:28.078Z,18.90
2022-08-19T04:30:28.059Z,18.50
2022-08-19T04:31:28.032Z,19.10
2022-08-19T04:32:28.034Z,16.80
2022-08-19T04:33:28.533Z,15.80
2022-08-19T04:34:28.009Z,18.40
2022-08-19T04:35:28.000Z,19.90
2022-08-19T04:36:28.010Z,18.80
2022-08-19T04:37:35.430Z,21.90
2022-08-19T04:38:28.982Z,18.80
2022-08-19T04:39:27.978Z,18.40
2022-08-19T04:40:27.961Z,21.40
2022-08-19T04:41:27.956Z,17.70
2022-08-19T04:42:30.753Z,20.00
2022-08-19T04:43:27.947Z,22.20
2022-08-19T04:44:27.941Z,18.60
2022-08-19T04:45:27.933Z,17.60
2022-08-19T04:46:39.840Z,21.20
2022-08-19T04:47:48.218Z,20.10
2022-08-19T04:48:28.930Z,22.10
2022-08-19T04:49:27.906Z,19.80
2022-08-19T04:50:27.953Z,19.10
2022-08-19T04:51:27.885Z,20.60
2022-08-19T04:52:27.876Z,22.70
2022-08-19T04:53:27.866Z,21.30
2022-08-19T04:54:37.433Z,22.20
2022-08-19T04:55:28.853Z,20.40
2022-08-19T04:56:27.857Z,20.50
2022-08-19T04:57:27.844Z,20.80
2022-08-19T04:58:27.831Z,19.50
2022-08-19T04:59:27.853Z,18.50
2022-08-19T05:00:27.818Z,18.20
2022-08-19T05:01:27.832Z,21.40
2022-08-19T05:02:27.801Z,17.10
2022-08-19T05:03:30.566Z,20.30
2022-08-19T05:04:27.810Z,21.90
2022-08-19T05:05:27.802Z,18.10
2022-08-19T05:06:27.771Z,17.40
2022-08-19T05:07:27.765Z,18.30
2022-08-19T05:08:31.354Z,19.10
2022-08-19T05:09:27.752Z,19.20
2022-08-19T05:10:27.739Z,17.80
2022-08-19T05:11:27.754Z,17.50
2022-08-19T05:12:29.374Z,14.60
2022-08-19T05:13:27.723Z,20.30
2022-08-19T05:14:27.710Z,17.00
2022-08-19T05:15:27.725Z,18.20
2022-08-19T05:16:27.701Z,16.80
2022-08-19T05:17:29.646Z,18.30
2022-08-19T05:18:27.694Z,18.10
2022-08-19T05:19:27.683Z,17.70
2022-08-19T05:20:27.698Z,17.20
2022-08-19T05:21:27.664Z,16.60
2022-08-19T05:22:27.656Z,16.40
2022-08-19T05:23:27.654Z,17.80
2022-08-19T05:24:27.639Z,17.50
2022-08-19T05:25:27.648Z,16.00
2022-08-19T05:26:27.619Z,15.90
2022-08-19T05:27:27.638Z,17.60
2022-08-19T05:28:27.614Z,16.00
2022-08-19T05:29:27.594Z,17.00
2022-08-19T05:30:42.377Z,16.80
2022-08-19T05:31:28.609Z,17.40
2022-08-19T05:32:27.576Z,16.80
2022-08-19T05:33:27.567Z,18.40
2022-08-19T05:34:27.553Z,16.30
2022-08-19T05:35:27.567Z,18.30
2022-08-19T05:36:27.550Z,16.50
2022-08-19T05:37:27.534Z,15.60
2022-08-19T05:38:27.526Z,17.30
2022-08-19T05:39:27.525Z,14.40
2022-08-19T05:40:27.528Z,13.90
2022-08-19T05:41:27.528Z,16.40
2022-08-19T05:42:27.552Z,16.30
2022-08-19T05:43:27.496Z,13.20
2022-08-19T05:44:27.482Z,15.10
2022-08-19T05:45:27.470Z,14.30
2022-08-19T05:46:27.965Z,13.30
2022-08-19T05:47:27.499Z,15.90
2022-08-19T05:48:27.449Z,12.90
2022-08-19T05:49:27.448Z,11.10
2022-08-19T05:50:27.438Z,12.70
2022-08-19T05:51:29.258Z,13.10
2022-08-19T05:52:27.423Z,13.30
2022-08-19T05:53:27.439Z,12.10
2022-08-19T05:54:27.407Z,12.10
2022-08-19T05:55:27.435Z,11.30
2022-08-19T05:56:27.403Z,11.40
2022-08-19T05:57:27.387Z,13.50
2022-08-19T05:58:28.234Z,11.10
2022-08-19T05:59:27.373Z,11.80
2022-08-19T06:00:27.385Z,12.10
2022-08-19T06:01:27.416Z,11.40
2022-08-19T06:02:27.468Z,11.20
2022-08-19T06:03:27.348Z,10.40
2022-08-19T06:04:27.356Z,10.90
2022-08-19T06:05:27.334Z,12.10
2022-08-19T06:06:27.359Z,8.80
2022-08-19T06:07:27.415Z,11.50
2022-08-19T06:08:34.277Z,12.00
2022-08-19T06:09:28.297Z,10.00
2022-08-19T06:10:27.361Z,11.00
2022-08-19T06:11:27.278Z,10.20
2022-08-19T06:12:27.268Z,10.30
2022-08-19T06:13:27.286Z,8.90
2022-08-19T06:14:28.038Z,12.20
2022-08-19T06:15:27.246Z,10.50
2022-08-19T06:16:27.243Z,11.00
2022-08-19T06:17:27.234Z,10.90
2022-08-19T06:18:27.255Z,8.80
2022-08-19T06:19:27.218Z,9.40
2022-08-19T06:20:52.593Z,8.40
2022-08-19T06:21:28.228Z,9.40
2022-08-19T06:22:27.194Z,9.40
2022-08-19T06:23:27.203Z,10.20
2022-08-19T06:24:27.178Z,8.90
2022-08-19T06:25:30.419Z,7.70
2022-08-19T06:26:27.162Z,10.70
2022-08-19T06:27:27.159Z,10.10
2022-08-19T06:28:27.153Z,8.20
2022-08-19T06:29:27.149Z,9.20
2022-08-19T06:30:27.165Z,9.10
2022-08-19T06:31:27.128Z,7.70
2022-08-19T06:32:27.116Z,6.50
2022-08-19T06:33:27.111Z,9.10
2022-08-19T06:34:27.105Z,9.70
2022-08-19T06:35:27.100Z,6.40
2022-08-19T06:36:27.142Z,7.90
2022-08-19T06:37:27.092Z,6.70
2022-08-19T06:38:27.096Z,7.80
2022-08-19T06:39:27.071Z,8.80
2022-08-19T06:40:27.084Z,9.40
2022-08-19T06:41:27.071Z,10.10
2022-08-19T06:42:27.061Z,7.30
2022-08-19T06:43:28.120Z,8.30
2022-08-19T06:44:27.038Z,6.30
2022-08-19T06:45:34.749Z,7.40
2022-08-19T06:46:28.049Z,6.30
2022-08-19T06:47:28.845Z,8.20
2022-08-19T06:48:27.012Z,7.00
2022-08-19T06:49:27.003Z,8.00
2022-08-19T06:50:26.987Z,8.00
2022-08-19T06:51:27.052Z,8.60
2022-08-19T06:52:27.002Z,7.20
2022-08-19T06:53:26.987Z,9.00
2022-08-19T06:54:30.939Z,7.70
2022-08-19T06:55:26.953Z,6.80
2022-08-19T06:56:26.951Z,7.20
2022-08-19T06:57:26.978Z,7.50
2022-08-19T06:58:26.956Z,6.20
2022-08-19T06:59:26.942Z,7.20
2022-08-19T07:00:27.091Z,7.20
2022-08-19T07:01:26.920Z,8.90
2022-08-19T07:02:26.919Z,7.70
2022-08-19T07:03:26.931Z,7.00
2022-08-19T07:04:26.905Z,7.20
2022-08-19T07:05:26.891Z,6.20
2022-08-19T07:06:43.559Z,6.70
2022-08-19T07:07:27.869Z,8.00
2022-08-19T07:08:26.925Z,6.20
2022-08-19T07:09:26.874Z,6.70
2022-08-19T07:10:26.860Z,7.80
2022-08-19T07:11:26.848Z,6.90
2022-08-19T07:12:26.842Z,7.40
2022-08-19T07:13:26.826Z,6.60
2022-08-19T07:14:26.816Z,5.70
2022-08-19T07:15:26.834Z,6.80
2022-08-19T07:16:29.359Z,6.30
2022-08-19T07:17:26.794Z,7.30
2022-08-19T07:18:26.797Z,7.60
2022-08-19T07:19:26.793Z,5.70
2022-08-19T07:20:28.579Z,6.50
2022-08-19T07:21:26.787Z,5.90
2022-08-19T07:22:26.758Z,6.20
2022-08-19T07:23:26.821Z,7.10
2022-08-19T07:24:26.741Z,7.10
2022-08-19T07:25:32.083Z,6.60
2022-08-19T07:26:28.272Z,6.00
2022-08-19T07:27:26.720Z,7.40
2022-08-19T07:28:27.810Z,5.10
2022-08-19T07:29:28.548Z,6.80
2022-08-19T07:30:26.695Z,5.40
2022-08-19T07:31:26.692Z,6.90
2022-08-19T07:32:26.709Z,5.70
2022-08-19T07:33:27.958Z,5.40
2022-08-19T07:34:26.671Z,5.80
2022-08-19T07:35:26.670Z,6.90
2022-08-19T07:36:26.652Z,6.20
2022-08-19T07:37:32.014Z,6.40
2022-08-19T07:38:27.660Z,7.50
2022-08-19T07:39:26.636Z,5.70
2022-08-19T07:40:26.620Z,5.90
2022-08-19T07:41:26.614Z,6.00
2022-08-19T07:42:26.606Z,6.30
2022-08-19T07:43:31.379Z,6.50
2022-08-19T07:44:26.598Z,6.00
2022-08-19T07:45:26.590Z,5.10
2022-08-19T07:46:26.575Z,6.70
2022-08-19T07:47:48.354Z,5.60
2022-08-19T07:48:27.591Z,6.50
2022-08-19T07:49:26.553Z,6.30
2022-08-19T07:50:26.558Z,5.90
2022-08-19T07:51:36.169Z,6.30
2022-08-19T07:52:27.535Z,9.00
2022-08-19T07:53:26.558Z,5.30
2022-08-19T07:54:26.513Z,5.20
2022-08-19T07:55:42.025Z,5.60
2022-08-19T07:56:27.512Z,6.10
2022-08-19T07:57:26.496Z,5.50
2022-08-19T07:58:26.517Z,7.20
2022-08-19T07:59:26.481Z,6.10
2022-08-19T08:00:26.539Z,6.70
2022-08-19T08:01:26.514Z,7.40
2022-08-19T08:02:26.458Z,5.40
2022-08-19T08:03:26.461Z,6.20
2022-08-19T08:04:26.469Z,6.10
2022-08-19T08:05:26.450Z,8.00
2022-08-19T08:06:26.433Z,5.00
2022-08-19T08:07:31.559Z,9.10
2022-08-19T08:08:27.641Z,6.00
2022-08-19T08:09:26.413Z,7.30
2022-08-19T08:10:26.497Z,7.20
2022-08-19T08:11:26.399Z,7.60
2022-08-19T08:12:35.126Z,5.70
2022-08-19T08:13:27.407Z,5.90
2022-08-19T08:14:29.519Z,6.30
2022-08-19T08:15:27.424Z,6.00
2022-08-19T08:16:26.357Z,6.90
2022-08-19T08:17:30.999Z,7.10
2022-08-19T08:18:27.627Z,6.50
2022-08-19T08:19:26.341Z,6.10
2022-08-19T08:20:26.350Z,6.80
2022-08-19T08:21:26.330Z,7.90
2022-08-19T08:22:26.316Z,6.20
2022-08-19T08:23:26.752Z,9.00
2022-08-19T08:24:28.483Z,7.10
2022-08-19T08:25:26.298Z,5.50
2022-08-19T08:26:26.289Z,5.40
2022-08-19T08:27:26.473Z,5.90
2022-08-19T08:28:26.310Z,6.80
2022-08-19T08:29:26.276Z,6.20
2022-08-19T08:30:26.256Z,5.40
2022-08-19T08:31:26.269Z,6.00
2022-08-19T08:32:26.265Z,7.50
2022-08-19T08:33:33.926Z,5.50
2022-08-19T08:34:27.240Z,7.20
2022-08-19T08:35:26.231Z,6.40
2022-08-19T08:36:26.220Z,4.90
2022-08-19T08:37:26.210Z,6.00
2022-08-19T08:38:26.215Z,5.70
2022-08-19T08:39:26.190Z,4.70
2022-08-19T08:40:26.246Z,6.60
2022-08-19T08:41:26.187Z,6.10
2022-08-19T08:42:26.179Z,5.60
2022-08-19T08:43:26.193Z,6.10
2022-08-19T08:44:26.168Z,4.70
2022-08-19T08:45:26.158Z,6.50
2022-08-19T08:46:30.581Z,5.70
2022-08-19T08:47:26.138Z,6.90
2022-08-19T08:48:26.124Z,6.10
2022-08-19T08:49:26.145Z,6.30
2022-08-19T08:50:26.339Z,6.00
2022-08-19T08:51:26.127Z,8.00
2022-08-19T08:52:26.098Z,6.70
2022-08-19T08:53:31.097Z,6.20
2022-08-19T08:54:27.106Z,5.80
2022-08-19T08:55:26.096Z,5.80
2022-08-19T08:56:26.106Z,6.80
2022-08-19T08:57:26.092Z,6.00
2022-08-19T08:58:26.058Z,6.40
2022-08-19T08:59:26.058Z,6.80
2022-08-19T09:00:26.034Z,6.30
2022-08-19T09:01:30.270Z,6.30
2022-08-19T09:02:26.043Z,6.80
2022-08-19T09:03:26.014Z,6.20
2022-08-19T09:04:26.012Z,6.80
2022-08-19T09:05:26.333Z,6.90
2022-08-19T09:06:26.112Z,5.90
2022-08-19T09:07:34.538Z,6.90
2022-08-19T09:08:26.984Z,7.30
2022-08-19T09:09:25.978Z,5.90
2022-08-19T09:10:26.156Z,6.40
2022-08-19T09:11:42.880Z,7.90
2022-08-19T09:12:27.183Z,6.00
2022-08-19T09:13:25.960Z,7.00
2022-08-19T09:14:49.423Z,7.90
2022-08-19T09:15:33.570Z,7.10
2022-08-19T09:16:28.006Z,7.60
2022-08-19T09:17:25.948Z,6.50
2022-08-19T09:18:25.903Z,6.20
2022-08-19T09:19:25.917Z,8.10
2022-08-19T09:20:26.216Z,7.40
2022-08-19T09:21:30.428Z,7.60
2022-08-19T09:22:27.358Z,7.40
2022-08-19T09:23:27.056Z,7.00
2022-08-19T09:24:25.890Z,6.60
2022-08-19T09:25:29.737Z,5.40
2022-08-19T09:26:25.849Z,6.60
2022-08-19T09:27:41.756Z,8.40
2022-08-19T09:28:27.227Z,5.90
2022-08-19T09:29:25.834Z,5.80
2022-08-19T09:30:25.837Z,6.30
2022-08-19T09:31:25.859Z,7.40
2022-08-19T09:32:26.641Z,7.30
2022-08-19T09:33:25.801Z,6.80
2022-08-19T09:34:25.793Z,6.50
2022-08-19T09:35:25.790Z,6.70
2022-08-19T09:36:34.475Z,5.30
2022-08-19T09:37:26.789Z,5.90
2022-08-19T09:38:25.762Z,7.50
2022-08-19T09:39:25.759Z,7.10
2022-08-19T09:40:26.808Z,6.00
2022-08-19T09:41:25.784Z,7.10
2022-08-19T09:42:30.422Z,7.60
2022-08-19T09:43:33.269Z,6.60
2022-08-19T09:44:26.713Z,11.50
2022-08-19T09:45:25.730Z,6.70
2022-08-19T09:46:25.704Z,5.90
2022-08-19T09:47:25.718Z,6.80
2022-08-19T09:48:25.716Z,6.20
2022-08-19T09:49:25.692Z,9.40
2022-08-19T09:50:25.710Z,7.20
2022-08-19T09:51:25.724Z,6.20
2022-08-19T09:52:25.670Z,5.50
2022-08-19T09:53:26.657Z,6.20
2022-08-19T09:54:25.664Z,6.90
2022-08-19T09:55:32.044Z,5.10
2022-08-19T09:56:26.654Z,7.30
2022-08-19T09:57:25.634Z,6.90
2022-08-19T09:58:26.732Z,7.10
2022-08-19T09:59:25.644Z,8.60
2022-08-19T10:00:25.630Z,6.00
2022-08-19T10:01:25.761Z,4.90
2022-08-19T10:02:25.603Z,5.50
2022-08-19T10:03:30.011Z,7.40
2022-08-19T10:04:25.588Z,6.90
2022-08-19T10:05:26.865Z,6.20
2022-08-19T10:06:45.798Z,4.80
2022-08-19T10:07:28.959Z,6.30
2022-08-19T10:08:26.725Z,6.10
2022-08-19T10:09:33.952Z,4.70
2022-08-19T10:10:26.528Z,6.10
2022-08-19T10:11:28.063Z,5.40
2022-08-19T10:12:26.518Z,6.50
2022-08-19T10:13:25.532Z,6.90
2022-08-19T10:14:25.509Z,4.80
2022-08-19T10:15:28.792Z,6.40
2022-08-19T10:16:25.980Z,6.10
2022-08-19T10:17:27.388Z,4.80
2022-08-19T10:18:25.478Z,5.20
2022-08-19T10:19:26.398Z,6.50
2022-08-19T10:20:25.471Z,5.40
2022-08-19T10:21:25.594Z,4.40
2022-08-19T10:22:26.213Z,5.60
2022-08-19T10:23:25.467Z,6.70
2022-08-19T10:24:25.439Z,6.00
2022-08-19T10:25:25.441Z,6.50
2022-08-19T10:26:26.630Z,5.90
2022-08-19T10:27:26.340Z,4.60
2022-08-19T10:28:25.405Z,5.80
2022-08-19T10:29:32.115Z,5.30
2022-08-19T10:30:26.393Z,4.80
2022-08-19T10:31:58.773Z,5.60
2022-08-19T10:32:34.058Z,5.00
2022-08-19T10:33:38.814Z,4.50
2022-08-19T10:34:28.389Z,6.80
2022-08-19T10:35:25.357Z,4.90
2022-08-19T10:36:25.362Z,4.50
2022-08-19T10:37:31.368Z,4.90
2022-08-19T10:38:32.985Z,5.40
2022-08-19T10:39:26.327Z,8.30
2022-08-19T10:40:25.434Z,5.70
2022-08-19T10:41:25.370Z,4.90
2022-08-19T10:42:25.306Z,3.90
2022-08-19T10:43:25.322Z,5.30
2022-08-19T10:44:25.293Z,4.90
2022-08-19T10:45:26.311Z,3.90
2022-08-19T10:46:25.281Z,5.10
2022-08-19T10:47:26.092Z,4.90
2022-08-19T10:48:26.282Z,4.80
2022-08-19T10:49:25.264Z,6.50
2022-08-19T10:50:28.654Z,4.60
2022-08-19T10:51:25.258Z,4.00
2022-08-19T10:52:32.284Z,6.10
2022-08-19T10:53:26.244Z,3.80
2022-08-19T10:54:31.204Z,4.80
2022-08-19T10:55:26.317Z,5.40
2022-08-19T10:56:25.211Z,5.00
2022-08-19T10:57:27.937Z,5.70
2022-08-19T10:58:26.199Z,4.90
2022-08-19T10:59:26.799Z,4.80
2022-08-19T11:00:25.184Z,7.30
2022-08-19T11:01:25.220Z,5.30
2022-08-19T11:02:25.175Z,5.50
2022-08-19T11:03:25.179Z,5.20
2022-08-19T11:04:28.862Z,4.70
2022-08-19T11:05:25.160Z,6.90
2022-08-19T11:06:25.147Z,7.40
2022-08-19T11:07:25.160Z,7.00
2022-08-19T11:08:25.172Z,5.50
2022-08-19T11:09:33.142Z,5.20
2022-08-19T11:10:26.107Z,4.70
2022-08-19T11:11:25.150Z,4.40
2022-08-19T11:12:25.107Z,4.50
2022-08-19T11:13:25.081Z,4.80
2022-08-19T11:14:25.098Z,5.40
2022-08-19T11:15:25.112Z,4.10
2022-08-19T11:16:25.066Z,4.40
2022-08-19T11:17:25.054Z,4.40
2022-08-19T11:18:25.053Z,5.40
2022-08-19T11:19:25.044Z,4.50
2022-08-19T11:20:25.038Z,4.10
2022-08-19T11:21:25.122Z,7.30
2022-08-19T11:22:28.816Z,5.20
2022-08-19T11:23:26.024Z,6.00
2022-08-19T11:24:25.009Z,5.70
2022-08-19T11:25:25.003Z,5.80
2022-08-19T11:26:24.991Z,4.80
2022-08-19T11:27:25.022Z,5.20
2022-08-19T11:28:24.974Z,5.10
2022-08-19T11:29:24.974Z,4.50
2022-08-19T11:30:24.958Z,4.90
2022-08-19T11:31:24.987Z,8.00
2022-08-19T11:32:24.978Z,4.70
2022-08-19T11:33:24.961Z,4.30
2022-08-19T11:34:24.933Z,3.90
2022-08-19T11:35:24.918Z,4.00
2022-08-19T11:36:24.915Z,3.70
2022-08-19T11:37:24.911Z,4.70
2022-08-19T11:38:24.936Z,4.20
2022-08-19T11:39:24.896Z,5.60
2022-08-19T11:40:24.885Z,5.80
2022-08-19T11:41:24.887Z,4.90
2022-08-19T11:42:24.871Z,5.00
2022-08-19T11:43:24.873Z,5.20
2022-08-19T11:44:24.893Z,4.40
2022-08-19T11:45:24.869Z,4.20
2022-08-19T11:46:24.856Z,5.10
2022-08-19T11:47:24.847Z,3.40
2022-08-19T11:48:24.835Z,3.80
2022-08-19T11:49:24.842Z,3.70
2022-08-19T11:50:24.843Z,2.90
2022-08-19T11:51:24.820Z,3.90
2022-08-19T11:52:24.806Z,4.00
2022-08-19T11:53:24.799Z,2.70
2022-08-19T11:54:24.812Z,4.60
2022-08-19T11:55:24.820Z,5.20
2022-08-19T11:56:24.780Z,4.00
2022-08-19T11:57:24.771Z,4.80
2022-08-19T11:58:24.773Z,4.00
2022-08-19T11:59:24.752Z,6.50
2022-08-19T12:00:24.767Z,4.00
2022-08-19T12:01:24.743Z,4.20
2022-08-19T12:02:24.727Z,4.90
2022-08-19T12:03:24.737Z,6.00
2022-08-19T12:04:24.778Z,6.10
2022-08-19T12:05:24.713Z,4.40
2022-08-19T12:06:24.704Z,4.10
2022-08-19T12:07:24.711Z,4.10
2022-08-19T12:08:24.715Z,5.00
2022-08-19T12:09:24.678Z,7.90
2022-08-19T12:10:26.388Z,4.60
2022-08-19T12:11:24.684Z,3.50
2022-08-19T12:12:24.662Z,4.10
2022-08-19T12:13:24.684Z,5.40
2022-08-19T12:14:24.732Z,3.40
2022-08-19T12:15:24.637Z,3.60
2022-08-19T12:16:24.651Z,3.60
2022-08-19T12:17:24.631Z,3.50
2022-08-19T12:18:24.728Z,4.10
2022-08-19T12:19:24.609Z,5.00
2022-08-19T12:20:24.684Z,3.70
2022-08-19T12:21:24.617Z,3.30
2022-08-19T12:22:24.594Z,4.60
2022-08-19T12:23:24.564Z,3.90
2022-08-19T12:24:24.569Z,3.60
2022-08-19T12:25:24.588Z,3.30
2022-08-19T12:26:24.560Z,4.50
2022-08-19T12:27:40.126Z,5.30
2022-08-19T12:28:25.546Z,4.10
2022-08-19T12:29:24.540Z,4.40
2022-08-19T12:30:24.567Z,4.80
2022-08-19T12:31:24.532Z,3.20
2022-08-19T12:32:24.527Z,5.60
2022-08-19T12:33:24.541Z,5.10
2022-08-19T12:34:24.505Z,4.30
2022-08-19T12:35:24.507Z,4.40
2022-08-19T12:36:24.551Z,5.00
2022-08-19T12:37:24.496Z,4.10
2022-08-19T12:38:24.479Z,4.60
2022-08-19T12:39:24.554Z,5.00
2022-08-19T12:40:26.462Z,4.90
2022-08-19T12:41:24.487Z,4.60
2022-08-19T12:42:24.482Z,4.70
2022-08-19T12:43:24.455Z,4.50
2022-08-19T12:44:29.573Z,6.10
2022-08-19T12:45:25.436Z,4.50
2022-08-19T12:46:26.200Z,4.60
2022-08-19T12:47:24.414Z,5.40
2022-08-19T12:48:33.641Z,5.40
2022-08-19T12:49:53.286Z,4.10
2022-08-19T12:50:25.441Z,4.80
2022-08-19T12:51:24.409Z,6.20
2022-08-19T12:52:24.417Z,5.30
2022-08-19T12:53:24.382Z,6.70
2022-08-19T12:54:24.363Z,4.30
2022-08-19T12:55:24.372Z,3.80
2022-08-19T12:56:24.348Z,4.30
2022-08-19T12:57:32.179Z,4.90
2022-08-19T12:58:27.340Z,5.20
2022-08-19T12:59:24.333Z,5.00
2022-08-19T13:00:24.330Z,3.70
2022-08-19T13:01:24.395Z,4.90
2022-08-19T13:02:24.314Z,4.30
2022-08-19T13:03:24.338Z,4.50
2022-08-19T13:04:24.306Z,4.40
2022-08-19T13:05:24.289Z,4.20